sensor_id;sensor_type;location;lat;lon;timestamp;P1;durP1;ratioP1;P2;durP2;ratioP2
68178;SDS011;69812;42.632;23.440;2024-01-15T00:01:11;36.88;;;14.15;;
68178;SDS011;69812;42.632;23.440;2024-01-15T00:03:36;28.40;;;11.30;;
68178;SDS011;69812;42.632;23.440;2024-01-15T00:06:02;25.65;;;9.82;;
68178;SDS011;69812;42.632;23.440;2024-01-15T00:08:27;25.83;;;10.15;;
68178;SDS011;69812;42.632;23.440;2024-01-15T00:10:53;32.38;;;10.73;;
68178;SDS011;69812;42.632;23.440;2024-01-15T00:13:18;25.90;;;9.20;;
68178;SDS011;69812;42.632;23.440;2024-01-15T00:15:44;22.92;;;9.63;;
68178;SDS011;69812;42.632;23.440;2024-01-15T00:18:09;26.48;;;9.52;;
68178;SDS011;69812;42.632;23.440;2024-01-15T00:20:37;43.50;;;15.07;;
68178;SDS011;69812;42.632;23.440;2024-01-15T00:23:03;42.50;;;16.88;;
68178;SDS011;69812;42.632;23.440;2024-01-15T00:25:28;31.67;;;11.63;;
68178;SDS011;69812;42.632;23.440;2024-01-15T00:27:54;34.60;;;12.90;;
68178;SDS011;69812;42.632;23.440;2024-01-15T00:30:19;33.80;;;12.23;;
68178;SDS011;69812;42.632;23.440;2024-01-15T00:32:44;32.47;;;11.30;;
68178;SDS011;69812;42.632;23.440;2024-01-15T00:35:10;39.55;;;10.27;;
68178;SDS011;69812;42.632;23.440;2024-01-15T00:37:35;36.03;;;12.15;;
68178;SDS011;69812;42.632;23.440;2024-01-15T00:40:01;23.25;;;9.93;;
68178;SDS011;69812;42.632;23.440;2024-01-15T00:42:26;34.30;;;14.10;;
68178;SDS011;69812;42.632;23.440;2024-01-15T00:44:52;36.58;;;13.30;;
68178;SDS011;69812;42.632;23.440;2024-01-15T00:47:19;27.95;;;12.35;;
68178;SDS011;69812;42.632;23.440;2024-01-15T00:49:44;42.50;;;14.70;;
68178;SDS011;69812;42.632;23.440;2024-01-15T00:52:10;24.98;;;11.93;;
68178;SDS011;69812;42.632;23.440;2024-01-15T00:54:35;30.27;;;12.40;;
68178;SDS011;69812;42.632;23.440;2024-01-15T00:57:04;31.02;;;11.30;;
68178;SDS011;69812;42.632;23.440;2024-01-15T00:59:29;33.80;;;13.60;;
68178;SDS011;69812;42.632;23.440;2024-01-15T01:01:55;32.75;;;12.98;;
68178;SDS011;69812;42.632;23.440;2024-01-15T01:04:20;33.85;;;12.10;;
68178;SDS011;69812;42.632;23.440;2024-01-15T01:06:45;34.65;;;13.48;;
68178;SDS011;69812;42.632;23.440;2024-01-15T01:09:11;29.42;;;12.35;;
68178;SDS011;69812;42.632;23.440;2024-01-15T01:11:36;39.75;;;13.10;;
68178;SDS011;69812;42.632;23.440;2024-01-15T01:14:02;52.30;;;17.90;;
68178;SDS011;69812;42.632;23.440;2024-01-15T01:16:28;38.72;;;15.00;;
68178;SDS011;69812;42.632;23.440;2024-01-15T01:18:53;38.25;;;14.07;;
68178;SDS011;69812;42.632;23.440;2024-01-15T01:21:18;33.80;;;13.25;;
68178;SDS011;69812;42.632;23.440;2024-01-15T01:23:44;32.00;;;13.05;;
68178;SDS011;69812;42.632;23.440;2024-01-15T01:26:09;36.20;;;12.40;;
68178;SDS011;69812;42.632;23.440;2024-01-15T01:28:35;32.50;;;11.70;;
68178;SDS011;69812;42.632;23.440;2024-01-15T01:31:00;27.08;;;10.95;;
68178;SDS011;69812;42.632;23.440;2024-01-15T01:33:28;25.75;;;10.60;;
68178;SDS011;69812;42.632;23.440;2024-01-15T01:35:54;27.65;;;11.68;;
68178;SDS011;69812;42.632;23.440;2024-01-15T01:38:19;32.80;;;10.00;;
68178;SDS011;69812;42.632;23.440;2024-01-15T01:40:44;28.98;;;10.00;;
68178;SDS011;69812;42.632;23.440;2024-01-15T01:43:10;25.83;;;11.25;;
68178;SDS011;69812;42.632;23.440;2024-01-15T01:45:35;28.38;;;10.52;;
68178;SDS011;69812;42.632;23.440;2024-01-15T01:48:01;25.67;;;10.00;;
68178;SDS011;69812;42.632;23.440;2024-01-15T01:50:27;26.38;;;10.68;;
68178;SDS011;69812;42.632;23.440;2024-01-15T01:52:54;28.48;;;9.73;;
68178;SDS011;69812;42.632;23.440;2024-01-15T01:55:20;24.20;;;9.02;;
68178;SDS011;69812;42.632;23.440;2024-01-15T01:57:49;28.40;;;10.30;;
68178;SDS011;69812;42.632;23.440;2024-01-15T02:00:16;19.38;;;8.07;;
68178;SDS011;69812;42.632;23.440;2024-01-15T02:02:42;22.10;;;9.38;;
68178;SDS011;69812;42.632;23.440;2024-01-15T02:05:07;32.45;;;10.65;;
68178;SDS011;69812;42.632;23.440;2024-01-15T02:07:36;22.85;;;8.40;;
68178;SDS011;69812;42.632;23.440;2024-01-15T02:10:02;33.50;;;13.70;;
68178;SDS011;69812;42.632;23.440;2024-01-15T02:12:31;35.28;;;12.70;;
68178;SDS011;69812;42.632;23.440;2024-01-15T02:14:57;27.33;;;11.75;;
68178;SDS011;69812;42.632;23.440;2024-01-15T02:17:22;27.30;;;8.38;;
68178;SDS011;69812;42.632;23.440;2024-01-15T02:19:47;22.92;;;9.23;;
68178;SDS011;69812;42.632;23.440;2024-01-15T02:22:13;23.17;;;8.55;;
68178;SDS011;69812;42.632;23.440;2024-01-15T02:24:38;19.17;;;7.32;;
68178;SDS011;69812;42.632;23.440;2024-01-15T02:27:04;18.42;;;7.90;;
68178;SDS011;69812;42.632;23.440;2024-01-15T02:29:29;24.50;;;9.27;;
68178;SDS011;69812;42.632;23.440;2024-01-15T02:31:55;20.55;;;7.57;;
68178;SDS011;69812;42.632;23.440;2024-01-15T02:34:20;17.70;;;8.60;;
68178;SDS011;69812;42.632;23.440;2024-01-15T02:36:45;24.60;;;11.30;;
68178;SDS011;69812;42.632;23.440;2024-01-15T02:39:11;16.88;;;7.75;;
68178;SDS011;69812;42.632;23.440;2024-01-15T02:41:37;33.28;;;13.85;;
68178;SDS011;69812;42.632;23.440;2024-01-15T02:44:02;30.67;;;11.95;;
68178;SDS011;69812;42.632;23.440;2024-01-15T02:46:28;23.83;;;9.23;;
68178;SDS011;69812;42.632;23.440;2024-01-15T02:48:53;33.80;;;14.25;;
68178;SDS011;69812;42.632;23.440;2024-01-15T02:51:18;29.63;;;12.15;;
68178;SDS011;69812;42.632;23.440;2024-01-15T02:53:44;27.33;;;11.48;;
68178;SDS011;69812;42.632;23.440;2024-01-15T02:56:10;32.58;;;11.88;;
68178;SDS011;69812;42.632;23.440;2024-01-15T02:58:35;27.30;;;10.95;;
68178;SDS011;69812;42.632;23.440;2024-01-15T03:01:00;29.83;;;11.60;;
68178;SDS011;69812;42.632;23.440;2024-01-15T03:03:26;22.90;;;10.57;;
68178;SDS011;69812;42.632;23.440;2024-01-15T03:05:51;33.15;;;11.73;;
68178;SDS011;69812;42.632;23.440;2024-01-15T03:08:17;25.80;;;10.43;;
68178;SDS011;69812;42.632;23.440;2024-01-15T03:10:48;26.38;;;12.00;;
68178;SDS011;69812;42.632;23.440;2024-01-15T03:13:14;32.88;;;14.20;;
68178;SDS011;69812;42.632;23.440;2024-01-15T03:15:40;31.17;;;13.80;;
68178;SDS011;69812;42.632;23.440;2024-01-15T03:18:05;35.08;;;14.85;;
68178;SDS011;69812;42.632;23.440;2024-01-15T03:20:31;47.28;;;17.02;;
68178;SDS011;69812;42.632;23.440;2024-01-15T03:22:56;37.45;;;13.13;;
68178;SDS011;69812;42.632;23.440;2024-01-15T03:25:22;33.55;;;12.38;;
68178;SDS011;69812;42.632;23.440;2024-01-15T03:27:47;31.55;;;13.07;;
68178;SDS011;69812;42.632;23.440;2024-01-15T03:30:12;30.60;;;14.88;;
68178;SDS011;69812;42.632;23.440;2024-01-15T03:32:38;43.53;;;17.88;;
68178;SDS011;69812;42.632;23.440;2024-01-15T03:35:04;61.88;;;21.48;;
68178;SDS011;69812;42.632;23.440;2024-01-15T03:37:29;64.97;;;22.77;;
68178;SDS011;69812;42.632;23.440;2024-01-15T03:39:59;59.47;;;20.35;;
68178;SDS011;69812;42.632;23.440;2024-01-15T03:42:24;51.53;;;18.67;;
68178;SDS011;69812;42.632;23.440;2024-01-15T03:44:50;46.30;;;20.02;;
68178;SDS011;69812;42.632;23.440;2024-01-15T03:47:15;57.65;;;21.30;;
68178;SDS011;69812;42.632;23.440;2024-01-15T03:49:40;41.05;;;15.82;;
68178;SDS011;69812;42.632;23.440;2024-01-15T03:52:06;47.65;;;19.85;;
68178;SDS011;69812;42.632;23.440;2024-01-15T03:54:31;42.80;;;17.00;;
68178;SDS011;69812;42.632;23.440;2024-01-15T03:56:56;31.52;;;12.15;;
68178;SDS011;69812;42.632;23.440;2024-01-15T03:59:22;37.58;;;13.95;;
68178;SDS011;69812;42.632;23.440;2024-01-15T04:01:48;35.28;;;16.05;;
68178;SDS011;69812;42.632;23.440;2024-01-15T04:04:16;47.17;;;15.05;;
68178;SDS011;69812;42.632;23.440;2024-01-15T04:06:42;34.47;;;12.50;;
68178;SDS011;69812;42.632;23.440;2024-01-15T04:09:08;40.97;;;15.40;;
68178;SDS011;69812;42.632;23.440;2024-01-15T04:11:33;40.70;;;15.48;;
68178;SDS011;69812;42.632;23.440;2024-01-15T04:13:58;40.45;;;16.75;;
68178;SDS011;69812;42.632;23.440;2024-01-15T04:16:24;40.17;;;14.98;;
68178;SDS011;69812;42.632;23.440;2024-01-15T04:18:49;43.53;;;16.10;;
68178;SDS011;69812;42.632;23.440;2024-01-15T04:21:16;37.90;;;15.73;;
68178;SDS011;69812;42.632;23.440;2024-01-15T04:23:42;39.08;;;16.08;;
68178;SDS011;69812;42.632;23.440;2024-01-15T04:26:08;41.67;;;16.40;;
68178;SDS011;69812;42.632;23.440;2024-01-15T04:28:33;36.05;;;15.43;;
68178;SDS011;69812;42.632;23.440;2024-01-15T04:30:59;36.92;;;13.27;;
68178;SDS011;69812;42.632;23.440;2024-01-15T04:33:24;42.45;;;15.77;;
68178;SDS011;69812;42.632;23.440;2024-01-15T04:35:49;39.47;;;15.10;;
68178;SDS011;69812;42.632;23.440;2024-01-15T04:38:15;38.67;;;14.70;;
68178;SDS011;69812;42.632;23.440;2024-01-15T04:40:40;35.33;;;14.40;;
68178;SDS011;69812;42.632;23.440;2024-01-15T04:43:06;34.90;;;15.38;;
68178;SDS011;69812;42.632;23.440;2024-01-15T04:45:31;39.88;;;14.70;;
68178;SDS011;69812;42.632;23.440;2024-01-15T04:47:56;34.13;;;14.25;;
68178;SDS011;69812;42.632;23.440;2024-01-15T04:50:22;40.65;;;16.83;;
68178;SDS011;69812;42.632;23.440;2024-01-15T04:52:49;40.25;;;16.27;;
68178;SDS011;69812;42.632;23.440;2024-01-15T04:55:15;36.28;;;13.50;;
68178;SDS011;69812;42.632;23.440;2024-01-15T04:57:40;34.15;;;13.82;;
68178;SDS011;69812;42.632;23.440;2024-01-15T05:00:06;36.47;;;14.68;;
68178;SDS011;69812;42.632;23.440;2024-01-15T05:02:32;45.15;;;16.70;;
68178;SDS011;69812;42.632;23.440;2024-01-15T05:04:57;35.88;;;14.27;;
68178;SDS011;69812;42.632;23.440;2024-01-15T05:07:22;38.00;;;15.68;;
68178;SDS011;69812;42.632;23.440;2024-01-15T05:09:49;36.15;;;14.43;;
68178;SDS011;69812;42.632;23.440;2024-01-15T05:12:14;40.60;;;14.27;;
68178;SDS011;69812;42.632;23.440;2024-01-15T05:14:40;39.40;;;17.08;;
68178;SDS011;69812;42.632;23.440;2024-01-15T05:17:10;36.47;;;15.82;;
68178;SDS011;69812;42.632;23.440;2024-01-15T05:19:35;41.78;;;17.77;;
68178;SDS011;69812;42.632;23.440;2024-01-15T05:22:00;43.40;;;17.15;;
68178;SDS011;69812;42.632;23.440;2024-01-15T05:24:26;35.30;;;14.30;;
68178;SDS011;69812;42.632;23.440;2024-01-15T05:26:51;38.45;;;14.95;;
68178;SDS011;69812;42.632;23.440;2024-01-15T05:29:17;41.10;;;14.93;;
68178;SDS011;69812;42.632;23.440;2024-01-15T05:31:43;26.60;;;11.85;;
68178;SDS011;69812;42.632;23.440;2024-01-15T05:34:08;27.30;;;11.65;;
68178;SDS011;69812;42.632;23.440;2024-01-15T05:36:34;39.33;;;14.75;;
68178;SDS011;69812;42.632;23.440;2024-01-15T05:38:59;41.40;;;17.02;;
68178;SDS011;69812;42.632;23.440;2024-01-15T05:41:25;41.25;;;16.17;;
68178;SDS011;69812;42.632;23.440;2024-01-15T05:43:50;37.55;;;13.68;;
68178;SDS011;69812;42.632;23.440;2024-01-15T05:46:16;29.42;;;13.18;;
68178;SDS011;69812;42.632;23.440;2024-01-15T05:48:41;43.50;;;16.33;;
68178;SDS011;69812;42.632;23.440;2024-01-15T05:51:06;31.35;;;14.10;;
68178;SDS011;69812;42.632;23.440;2024-01-15T05:53:32;47.17;;;17.08;;
68178;SDS011;69812;42.632;23.440;2024-01-15T05:55:57;40.55;;;15.68;;
68178;SDS011;69812;42.632;23.440;2024-01-15T05:58:23;38.08;;;17.92;;
68178;SDS011;69812;42.632;23.440;2024-01-15T06:00:48;38.63;;;15.57;;
68178;SDS011;69812;42.632;23.440;2024-01-15T06:03:15;37.45;;;16.67;;
68178;SDS011;69812;42.632;23.440;2024-01-15T06:05:40;37.97;;;16.67;;
68178;SDS011;69812;42.632;23.440;2024-01-15T06:08:05;33.70;;;15.50;;
68178;SDS011;69812;42.632;23.440;2024-01-15T06:10:31;38.42;;;17.33;;
68178;SDS011;69812;42.632;23.440;2024-01-15T06:12:56;44.47;;;17.20;;
68178;SDS011;69812;42.632;23.440;2024-01-15T06:15:22;36.42;;;16.23;;
68178;SDS011;69812;42.632;23.440;2024-01-15T06:17:47;37.10;;;14.32;;
68178;SDS011;69812;42.632;23.440;2024-01-15T06:20:15;36.05;;;14.45;;
68178;SDS011;69812;42.632;23.440;2024-01-15T06:22:40;39.50;;;16.02;;
68178;SDS011;69812;42.632;23.440;2024-01-15T06:25:06;37.65;;;16.73;;
68178;SDS011;69812;42.632;23.440;2024-01-15T06:29:58;33.90;;;13.75;;
68178;SDS011;69812;42.632;23.440;2024-01-15T06:32:24;42.10;;;16.00;;
68178;SDS011;69812;42.632;23.440;2024-01-15T06:34:49;43.78;;;18.75;;
68178;SDS011;69812;42.632;23.440;2024-01-15T06:37:14;42.42;;;18.27;;
68178;SDS011;69812;42.632;23.440;2024-01-15T06:39:42;37.67;;;16.95;;
68178;SDS011;69812;42.632;23.440;2024-01-15T06:42:07;40.88;;;16.85;;
68178;SDS011;69812;42.632;23.440;2024-01-15T06:44:33;37.05;;;18.35;;
68178;SDS011;69812;42.632;23.440;2024-01-15T06:46:58;42.17;;;17.70;;
68178;SDS011;69812;42.632;23.440;2024-01-15T06:49:27;51.25;;;20.15;;
68178;SDS011;69812;42.632;23.440;2024-01-15T06:51:54;53.03;;;23.02;;
68178;SDS011;69812;42.632;23.440;2024-01-15T06:54:20;45.58;;;17.65;;
68178;SDS011;69812;42.632;23.440;2024-01-15T06:56:45;40.10;;;18.05;;
68178;SDS011;69812;42.632;23.440;2024-01-15T06:59:10;41.55;;;17.10;;
68178;SDS011;69812;42.632;23.440;2024-01-15T07:01:36;39.15;;;16.60;;
68178;SDS011;69812;42.632;23.440;2024-01-15T07:04:01;41.97;;;20.25;;
68178;SDS011;69812;42.632;23.440;2024-01-15T07:06:27;45.30;;;18.50;;
68178;SDS011;69812;42.632;23.440;2024-01-15T07:08:52;40.53;;;18.17;;
68178;SDS011;69812;42.632;23.440;2024-01-15T07:11:17;49.97;;;21.10;;
68178;SDS011;69812;42.632;23.440;2024-01-15T07:13:43;47.08;;;19.63;;
68178;SDS011;69812;42.632;23.440;2024-01-15T07:16:08;48.08;;;19.65;;
68178;SDS011;69812;42.632;23.440;2024-01-15T07:18:33;43.53;;;17.90;;
68178;SDS011;69812;42.632;23.440;2024-01-15T07:20:59;40.53;;;17.75;;
68178;SDS011;69812;42.632;23.440;2024-01-15T07:23:28;46.33;;;18.05;;
68178;SDS011;69812;42.632;23.440;2024-01-15T07:28:19;41.57;;;17.50;;
68178;SDS011;69812;42.632;23.440;2024-01-15T07:30:44;42.83;;;18.23;;
68178;SDS011;69812;42.632;23.440;2024-01-15T07:33:10;46.40;;;18.88;;
68178;SDS011;69812;42.632;23.440;2024-01-15T07:35:35;40.33;;;17.80;;
68178;SDS011;69812;42.632;23.440;2024-01-15T07:38:01;43.80;;;17.77;;
68178;SDS011;69812;42.632;23.440;2024-01-15T07:40:26;41.42;;;17.85;;
68178;SDS011;69812;42.632;23.440;2024-01-15T07:42:51;45.08;;;18.10;;
68178;SDS011;69812;42.632;23.440;2024-01-15T07:45:17;44.97;;;19.10;;
68178;SDS011;69812;42.632;23.440;2024-01-15T07:47:43;42.03;;;19.70;;
68178;SDS011;69812;42.632;23.440;2024-01-15T07:50:09;46.22;;;20.27;;
68178;SDS011;69812;42.632;23.440;2024-01-15T07:52:35;45.35;;;18.08;;
68178;SDS011;69812;42.632;23.440;2024-01-15T07:55:00;42.80;;;18.75;;
68178;SDS011;69812;42.632;23.440;2024-01-15T07:57:26;42.95;;;19.13;;
68178;SDS011;69812;42.632;23.440;2024-01-15T07:59:51;42.92;;;18.20;;
68178;SDS011;69812;42.632;23.440;2024-01-15T08:02:17;43.63;;;17.55;;
68178;SDS011;69812;42.632;23.440;2024-01-15T08:04:42;36.88;;;16.92;;
68178;SDS011;69812;42.632;23.440;2024-01-15T08:07:08;42.22;;;17.90;;
68178;SDS011;69812;42.632;23.440;2024-01-15T08:09:33;44.63;;;20.60;;
68178;SDS011;69812;42.632;23.440;2024-01-15T08:11:59;52.15;;;20.17;;
68178;SDS011;69812;42.632;23.440;2024-01-15T08:14:25;42.17;;;21.50;;
68178;SDS011;69812;42.632;23.440;2024-01-15T08:16:50;41.83;;;17.65;;
68178;SDS011;69812;42.632;23.440;2024-01-15T08:19:15;37.45;;;14.90;;
68178;SDS011;69812;42.632;23.440;2024-01-15T08:21:41;36.65;;;13.63;;
68178;SDS011;69812;42.632;23.440;2024-01-15T08:24:07;30.20;;;12.57;;
68178;SDS011;69812;42.632;23.440;2024-01-15T08:26:33;29.13;;;12.07;;
68178;SDS011;69812;42.632;23.440;2024-01-15T08:28:58;28.85;;;11.43;;
68178;SDS011;69812;42.632;23.440;2024-01-15T08:31:24;28.27;;;10.32;;
68178;SDS011;69812;42.632;23.440;2024-01-15T08:33:50;32.95;;;12.48;;
68178;SDS011;69812;42.632;23.440;2024-01-15T08:36:15;30.58;;;12.45;;
68178;SDS011;69812;42.632;23.440;2024-01-15T08:38:40;27.83;;;11.85;;
68178;SDS011;69812;42.632;23.440;2024-01-15T08:41:06;32.03;;;12.85;;
68178;SDS011;69812;42.632;23.440;2024-01-15T08:43:33;28.65;;;11.77;;
68178;SDS011;69812;42.632;23.440;2024-01-15T08:45:59;28.80;;;11.70;;
68178;SDS011;69812;42.632;23.440;2024-01-15T08:48:24;30.00;;;10.95;;
68178;SDS011;69812;42.632;23.440;2024-01-15T08:50:52;24.70;;;10.02;;
68178;SDS011;69812;42.632;23.440;2024-01-15T08:53:18;24.58;;;11.02;;
68178;SDS011;69812;42.632;23.440;2024-01-15T08:55:43;28.52;;;10.52;;
68178;SDS011;69812;42.632;23.440;2024-01-15T08:58:09;26.35;;;12.32;;
68178;SDS011;69812;42.632;23.440;2024-01-15T09:00:35;32.00;;;13.02;;
68178;SDS011;69812;42.632;23.440;2024-01-15T09:03:00;33.00;;;11.70;;
68178;SDS011;69812;42.632;23.440;2024-01-15T09:05:25;31.20;;;11.98;;
68178;SDS011;69812;42.632;23.440;2024-01-15T09:07:51;29.45;;;11.60;;
68178;SDS011;69812;42.632;23.440;2024-01-15T09:10:19;27.67;;;12.10;;
68178;SDS011;69812;42.632;23.440;2024-01-15T09:12:45;34.83;;;12.02;;
68178;SDS011;69812;42.632;23.440;2024-01-15T09:15:10;25.33;;;10.80;;
68178;SDS011;69812;42.632;23.440;2024-01-15T09:17:36;33.97;;;12.70;;
68178;SDS011;69812;42.632;23.440;2024-01-15T09:20:01;28.77;;;12.18;;
68178;SDS011;69812;42.632;23.440;2024-01-15T09:22:29;32.03;;;10.25;;
68178;SDS011;69812;42.632;23.440;2024-01-15T09:24:54;31.75;;;11.75;;
68178;SDS011;69812;42.632;23.440;2024-01-15T09:27:19;30.42;;;9.95;;
68178;SDS011;69812;42.632;23.440;2024-01-15T09:29:45;31.30;;;11.45;;
68178;SDS011;69812;42.632;23.440;2024-01-15T09:32:11;32.88;;;12.38;;
68178;SDS011;69812;42.632;23.440;2024-01-15T09:34:37;24.42;;;10.48;;
68178;SDS011;69812;42.632;23.440;2024-01-15T09:37:03;32.20;;;11.90;;
68178;SDS011;69812;42.632;23.440;2024-01-15T09:39:29;28.17;;;11.35;;
68178;SDS011;69812;42.632;23.440;2024-01-15T09:41:55;32.50;;;12.68;;
68178;SDS011;69812;42.632;23.440;2024-01-15T09:44:22;27.83;;;10.80;;
68178;SDS011;69812;42.632;23.440;2024-01-15T09:46:48;27.90;;;12.00;;
68178;SDS011;69812;42.632;23.440;2024-01-15T09:49:16;29.00;;;10.98;;
68178;SDS011;69812;42.632;23.440;2024-01-15T09:51:42;26.80;;;11.90;;
68178;SDS011;69812;42.632;23.440;2024-01-15T09:54:08;28.58;;;11.63;;
68178;SDS011;69812;42.632;23.440;2024-01-15T09:56:34;30.38;;;12.27;;
68178;SDS011;69812;42.632;23.440;2024-01-15T09:59:00;28.10;;;11.18;;
68178;SDS011;69812;42.632;23.440;2024-01-15T10:01:27;32.25;;;12.20;;
68178;SDS011;69812;42.632;23.440;2024-01-15T10:03:54;32.50;;;14.10;;
68178;SDS011;69812;42.632;23.440;2024-01-15T10:06:19;33.85;;;13.05;;
68178;SDS011;69812;42.632;23.440;2024-01-15T10:08:47;34.03;;;12.35;;
68178;SDS011;69812;42.632;23.440;2024-01-15T10:11:14;29.23;;;11.80;;
68178;SDS011;69812;42.632;23.440;2024-01-15T10:13:39;30.50;;;12.57;;
68178;SDS011;69812;42.632;23.440;2024-01-15T10:16:05;28.83;;;12.20;;
68178;SDS011;69812;42.632;23.440;2024-01-15T10:18:31;33.15;;;12.73;;
68178;SDS011;69812;42.632;23.440;2024-01-15T10:20:56;33.40;;;13.23;;
68178;SDS011;69812;42.632;23.440;2024-01-15T10:23:25;31.48;;;14.52;;
68178;SDS011;69812;42.632;23.440;2024-01-15T10:25:50;26.65;;;12.48;;
68178;SDS011;69812;42.632;23.440;2024-01-15T10:28:16;34.47;;;13.68;;
68178;SDS011;69812;42.632;23.440;2024-01-15T10:30:44;37.50;;;13.95;;
68178;SDS011;69812;42.632;23.440;2024-01-15T10:33:09;30.23;;;13.73;;
68178;SDS011;69812;42.632;23.440;2024-01-15T10:35:36;34.70;;;13.52;;
68178;SDS011;69812;42.632;23.440;2024-01-15T10:38:03;34.33;;;14.40;;
68178;SDS011;69812;42.632;23.440;2024-01-15T10:40:28;40.25;;;17.38;;
68178;SDS011;69812;42.632;23.440;2024-01-15T10:42:54;35.22;;;15.20;;
68178;SDS011;69812;42.632;23.440;2024-01-15T10:45:20;40.38;;;17.52;;
68178;SDS011;69812;42.632;23.440;2024-01-15T10:47:45;36.25;;;15.43;;
68178;SDS011;69812;42.632;23.440;2024-01-15T10:50:11;41.05;;;16.02;;
68178;SDS011;69812;42.632;23.440;2024-01-15T10:52:38;46.83;;;18.77;;
68178;SDS011;69812;42.632;23.440;2024-01-15T10:55:08;42.05;;;17.25;;
68178;SDS011;69812;42.632;23.440;2024-01-15T10:57:35;39.58;;;16.63;;
68178;SDS011;69812;42.632;23.440;2024-01-15T11:00:02;38.95;;;16.60;;
68178;SDS011;69812;42.632;23.440;2024-01-15T11:02:30;36.22;;;15.38;;
68178;SDS011;69812;42.632;23.440;2024-01-15T11:04:59;32.95;;;14.85;;
68178;SDS011;69812;42.632;23.440;2024-01-15T11:07:25;38.85;;;16.27;;
68178;SDS011;69812;42.632;23.440;2024-01-15T11:09:51;45.47;;;17.23;;
68178;SDS011;69812;42.632;23.440;2024-01-15T11:12:17;47.60;;;18.25;;
68178;SDS011;69812;42.632;23.440;2024-01-15T11:14:48;38.17;;;17.05;;
68178;SDS011;69812;42.632;23.440;2024-01-15T11:17:15;48.05;;;18.83;;
68178;SDS011;69812;42.632;23.440;2024-01-15T11:22:53;35.85;;;15.27;;
68178;SDS011;69812;42.632;23.440;2024-01-15T11:25:13;43.35;;;16.90;;
68178;SDS011;69812;42.632;23.440;2024-01-15T11:27:43;41.72;;;17.13;;
68178;SDS011;69812;42.632;23.440;2024-01-15T11:30:12;42.38;;;18.50;;
68178;SDS011;69812;42.632;23.440;2024-01-15T11:32:38;45.22;;;17.65;;
68178;SDS011;69812;42.632;23.440;2024-01-15T11:35:07;41.22;;;17.88;;
68178;SDS011;69812;42.632;23.440;2024-01-15T11:40:20;43.67;;;17.92;;
68178;SDS011;69812;42.632;23.440;2024-01-15T11:42:47;42.92;;;19.42;;
68178;SDS011;69812;42.632;23.440;2024-01-15T11:45:13;43.08;;;18.63;;
68178;SDS011;69812;42.632;23.440;2024-01-15T11:50:24;45.47;;;18.30;;
68178;SDS011;69812;42.632;23.440;2024-01-15T11:53:02;47.38;;;19.48;;
68178;SDS011;69812;42.632;23.440;2024-01-15T11:55:35;39.05;;;18.35;;
68178;SDS011;69812;42.632;23.440;2024-01-15T11:58:06;42.00;;;18.83;;
68178;SDS011;69812;42.632;23.440;2024-01-15T12:00:34;39.88;;;18.23;;
68178;SDS011;69812;42.632;23.440;2024-01-15T12:02:59;38.80;;;18.98;;
68178;SDS011;69812;42.632;23.440;2024-01-15T12:05:27;40.00;;;18.13;;
68178;SDS011;69812;42.632;23.440;2024-01-15T12:07:52;43.45;;;19.73;;
68178;SDS011;69812;42.632;23.440;2024-01-15T12:10:18;45.58;;;20.35;;
68178;SDS011;69812;42.632;23.440;2024-01-15T12:12:58;38.85;;;18.75;;
68178;SDS011;69812;42.632;23.440;2024-01-15T12:15:24;42.55;;;19.10;;
68178;SDS011;69812;42.632;23.440;2024-01-15T12:17:51;39.97;;;18.90;;
68178;SDS011;69812;42.632;23.440;2024-01-15T12:20:17;43.28;;;19.33;;
68178;SDS011;69812;42.632;23.440;2024-01-15T12:22:43;40.20;;;18.15;;
68178;SDS011;69812;42.632;23.440;2024-01-15T12:25:08;40.55;;;17.80;;
68178;SDS011;69812;42.632;23.440;2024-01-15T12:27:34;40.28;;;19.05;;
68178;SDS011;69812;42.632;23.440;2024-01-15T12:30:00;41.90;;;17.40;;
68178;SDS011;69812;42.632;23.440;2024-01-15T12:32:25;53.05;;;22.95;;
68178;SDS011;69812;42.632;23.440;2024-01-15T12:34:51;41.83;;;18.58;;
68178;SDS011;69812;42.632;23.440;2024-01-15T12:37:19;51.15;;;21.08;;
68178;SDS011;69812;42.632;23.440;2024-01-15T12:39:45;52.25;;;23.38;;
68178;SDS011;69812;42.632;23.440;2024-01-15T12:42:11;51.17;;;21.38;;
68178;SDS011;69812;42.632;23.440;2024-01-15T12:44:36;50.58;;;20.10;;
68178;SDS011;69812;42.632;23.440;2024-01-15T12:47:05;52.17;;;21.70;;
68178;SDS011;69812;42.632;23.440;2024-01-15T12:49:31;43.88;;;19.88;;
68178;SDS011;69812;42.632;23.440;2024-01-15T12:51:57;49.70;;;20.77;;
68178;SDS011;69812;42.632;23.440;2024-01-15T12:54:23;46.92;;;20.83;;
68178;SDS011;69812;42.632;23.440;2024-01-15T12:56:49;43.80;;;21.13;;
68178;SDS011;69812;42.632;23.440;2024-01-15T12:59:16;49.53;;;23.10;;
68178;SDS011;69812;42.632;23.440;2024-01-15T13:01:42;46.55;;;20.60;;
68178;SDS011;69812;42.632;23.440;2024-01-15T13:04:08;46.40;;;20.08;;
68178;SDS011;69812;42.632;23.440;2024-01-15T13:06:35;48.60;;;21.02;;
68178;SDS011;69812;42.632;23.440;2024-01-15T13:09:02;50.70;;;22.33;;
68178;SDS011;69812;42.632;23.440;2024-01-15T13:11:30;53.67;;;22.52;;
68178;SDS011;69812;42.632;23.440;2024-01-15T13:13:56;56.72;;;22.98;;
68178;SDS011;69812;42.632;23.440;2024-01-15T13:16:22;60.45;;;24.83;;
68178;SDS011;69812;42.632;23.440;2024-01-15T13:18:47;57.78;;;24.70;;
68178;SDS011;69812;42.632;23.440;2024-01-15T13:21:14;56.13;;;24.90;;
68178;SDS011;69812;42.632;23.440;2024-01-15T13:23:40;55.60;;;20.23;;
68178;SDS011;69812;42.632;23.440;2024-01-15T13:26:05;51.83;;;21.60;;
68178;SDS011;69812;42.632;23.440;2024-01-15T13:28:32;56.53;;;22.40;;
68178;SDS011;69812;42.632;23.440;2024-01-15T13:30:57;52.10;;;21.95;;
68178;SDS011;69812;42.632;23.440;2024-01-15T13:33:25;49.75;;;23.00;;
68178;SDS011;69812;42.632;23.440;2024-01-15T13:35:51;57.78;;;23.20;;
68178;SDS011;69812;42.632;23.440;2024-01-15T13:38:16;54.40;;;23.00;;
68178;SDS011;69812;42.632;23.440;2024-01-15T13:40:42;52.13;;;23.27;;
68178;SDS011;69812;42.632;23.440;2024-01-15T13:43:10;58.08;;;24.10;;
68178;SDS011;69812;42.632;23.440;2024-01-15T13:45:36;53.67;;;23.02;;
68178;SDS011;69812;42.632;23.440;2024-01-15T13:48:02;52.13;;;23.35;;
68178;SDS011;69812;42.632;23.440;2024-01-15T13:50:30;52.17;;;23.00;;
68178;SDS011;69812;42.632;23.440;2024-01-15T13:52:56;48.38;;;20.90;;
68178;SDS011;69812;42.632;23.440;2024-01-15T13:55:22;56.33;;;22.13;;
68178;SDS011;69812;42.632;23.440;2024-01-15T13:57:47;50.55;;;23.23;;
68178;SDS011;69812;42.632;23.440;2024-01-15T14:00:12;65.90;;;29.27;;
68178;SDS011;69812;42.632;23.440;2024-01-15T14:02:43;70.10;;;28.10;;
68178;SDS011;69812;42.632;23.440;2024-01-15T14:05:09;67.53;;;27.58;;
68178;SDS011;69812;42.632;23.440;2024-01-15T14:07:34;64.18;;;26.65;;
68178;SDS011;69812;42.632;23.440;2024-01-15T14:09:59;62.00;;;27.35;;
68178;SDS011;69812;42.632;23.440;2024-01-15T14:12:25;56.30;;;27.17;;
68178;SDS011;69812;42.632;23.440;2024-01-15T14:14:51;62.67;;;28.73;;